Time;durP1;ratioP1;P1;durP2;ratioP2;P2;SDS_P1;SDS_P2;PMS_P1;PMS_P2;Temp;Humidity;BMP_temperature;BMP_pressure;BME280_temperature;BME280_humidity;BME280_pressure;Samples;Min_cycle;Max_cycle;Signal;HPM_P1;HPM_P2
2023/01/14 00:01:15;;;;;;;10.33;2.47;;;7.10;99.90;;;;;;4954085;28;20249;-58
2023/01/14 00:03:45;;;;;;;7.93;1.60;;;7.10;99.90;;;;;;4954565;28;20334;-58
2023/01/14 00:06:14;;;;;;;9.33;1.83;;;7.10;99.90;;;;;;4952129;29;20709;-58
2023/01/14 00:08:43;;;;;;;8.73;1.60;;;7.00;99.90;;;;;;4954442;28;20231;-58
2023/01/14 00:11:13;;;;;;;7.80;1.50;;;7.00;99.90;;;;;;4954741;29;20614;-58
2023/01/14 00:13:42;;;;;;;13.63;2.27;;;7.00;99.90;;;;;;4954253;28;20322;-58
2023/01/14 00:16:12;;;;;;;6.27;1.97;;;7.00;99.90;;;;;;4954374;29;20228;-59
2023/01/14 00:18:41;;;;;;;8.70;1.63;;;7.00;99.90;;;;;;4954524;28;20556;-58
2023/01/14 00:21:13;;;;;;;7.80;1.53;;;7.10;99.90;;;;;;4954662;28;20246;-59
2023/01/14 00:23:41;;;;;;;10.07;1.70;;;7.00;99.90;;;;;;4954156;29;20326;-59
2023/01/14 00:26:12;;;;;;;9.20;1.37;;;7.00;99.90;;;;;;4954372;29;20235;-57
2023/01/14 00:28:41;;;;;;;8.27;1.67;;;7.00;99.90;;;;;;4954220;28;20586;-58
2023/01/14 00:31:11;;;;;;;8.80;1.80;;;7.00;99.90;;;;;;4945891;28;20240;-58
2023/01/14 00:33:40;;;;;;;8.50;1.43;;;7.00;99.90;;;;;;4956764;28;20223;-58
2023/01/14 00:36:12;;;;;;;10.73;2.03;;;7.00;99.90;;;;;;4957757;28;20215;-59
2023/01/14 00:38:41;;;;;;;10.43;2.23;;;7.00;99.90;;;;;;4957683;28;20227;-58
2023/01/14 00:41:12;;;;;;;8.90;1.80;;;7.00;99.90;;;;;;4956680;29;20659;-58
2023/01/14 00:43:42;;;;;;;7.23;1.33;;;6.90;99.90;;;;;;4957757;28;20223;-58
2023/01/14 00:46:12;;;;;;;8.80;2.00;;;6.90;99.90;;;;;;4957733;28;20242;-58
2023/01/14 00:48:41;;;;;;;8.20;1.50;;;6.90;99.90;;;;;;4957865;28;20235;-58
2023/01/14 00:51:09;;;;;;;8.17;1.83;;;6.90;99.90;;;;;;4956140;29;20587;-58
2023/01/14 00:53:40;;;;;;;15.87;2.00;;;6.90;99.90;;;;;;4957131;29;20238;-58
2023/01/14 00:56:10;;;;;;;5.40;1.30;;;6.80;99.90;;;;;;4957625;28;20572;-58
2023/01/14 00:58:38;;;;;;;7.93;1.80;;;6.80;99.90;;;;;;4955982;28;20227;-58
2023/01/14 01:01:06;;;;;;;7.70;1.90;;;6.80;99.90;;;;;;4956961;28;20243;-58
2023/01/14 01:03:39;;;;;;;7.47;1.47;;;6.80;99.90;;;;;;4957092;29;20227;-57
2023/01/14 01:06:08;;;;;;;10.63;1.93;;;6.80;99.90;;;;;;4955907;28;20231;-58
2023/01/14 01:08:36;;;;;;;10.90;1.57;;;6.90;99.90;;;;;;4957160;28;20235;-58
2023/01/14 01:11:06;;;;;;;5.53;1.80;;;6.80;99.90;;;;;;4957433;28;20684;-58
2023/01/14 01:13:35;;;;;;;7.17;1.67;;;6.80;99.90;;;;;;4957140;28;20227;-58
2023/01/14 01:16:05;;;;;;;6.67;1.17;;;6.80;99.90;;;;;;4957599;28;20231;-59
2023/01/14 01:18:33;;;;;;;8.70;1.80;;;6.80;99.90;;;;;;4957336;28;20219;-58
2023/01/14 01:21:03;;;;;;;6.93;1.30;;;6.80;99.90;;;;;;4957148;28;20683;-58
2023/01/14 01:23:31;;;;;;;8.00;1.97;;;6.80;99.90;;;;;;4956676;28;20766;-59
2023/01/14 01:26:00;;;;;;;7.77;1.47;;;6.80;99.90;;;;;;4941769;29;20298;-58
2023/01/14 01:28:30;;;;;;;5.80;1.50;;;6.80;99.90;;;;;;4955369;29;20274;-58
2023/01/14 01:31:01;;;;;;;6.43;1.47;;;6.80;99.90;;;;;;4945410;29;20236;-58
2023/01/14 01:33:30;;;;;;;5.23;1.40;;;6.80;99.90;;;;;;4950626;28;20327;-58
2023/01/14 01:36:03;;;;;;;7.43;1.50;;;6.80;99.90;;;;;;4956947;28;20235;-58
2023/01/14 01:38:31;;;;;;;8.30;1.60;;;6.80;99.90;;;;;;4956579;28;20300;-58
2023/01/14 01:41:00;;;;;;;7.07;1.30;;;6.80;99.90;;;;;;4957071;28;20698;-58
2023/01/14 01:43:32;;;;;;;8.10;1.63;;;6.80;99.90;;;;;;4956358;28;20782;-58
2023/01/14 01:46:01;;;;;;;8.53;1.73;;;6.90;99.90;;;;;;4956552;28;20239;-58
2023/01/14 01:48:34;;;;;;;7.33;1.40;;;6.90;99.90;;;;;;4955340;29;20255;-58
2023/01/14 01:51:07;;;;;;;6.00;1.80;;;6.80;99.90;;;;;;4956626;29;20227;-58
2023/01/14 01:53:39;;;;;;;5.10;1.60;;;6.80;99.90;;;;;;4956225;29;20313;-57
2023/01/14 01:56:10;;;;;;;8.97;1.67;;;6.80;99.90;;;;;;4955170;29;20227;-58
2023/01/14 01:58:41;;;;;;;6.80;1.50;;;6.90;99.90;;;;;;4954788;28;20242;-58
2023/01/14 02:01:09;;;;;;;8.20;1.80;;;6.90;99.90;;;;;;4947971;28;20323;-59
2023/01/14 02:03:40;;;;;;;5.67;1.60;;;6.80;99.90;;;;;;4956428;28;20231;-58
2023/01/14 02:06:09;;;;;;;5.90;1.30;;;6.90;99.90;;;;;;4951669;28;20632;-58
2023/01/14 02:08:41;;;;;;;7.83;1.63;;;6.90;99.90;;;;;;4937134;29;20750;-58
2023/01/14 02:11:23;;;;;;;7.83;1.60;;;6.90;99.90;;;;;;4937117;29;20234;-58
2023/01/14 02:14:02;;;;;;;6.70;1.47;;;6.90;99.90;;;;;;4937095;29;20696;-58
2023/01/14 02:16:42;;;;;;;7.23;1.37;;;6.90;99.90;;;;;;4936778;29;20234;-58
2023/01/14 02:19:17;;;;;;;7.70;1.50;;;6.90;99.90;;;;;;4935839;29;20255;-58
2023/01/14 02:21:52;;;;;;;6.57;1.70;;;6.90;99.90;;;;;;4936751;29;20231;-58
2023/01/14 02:24:48;;;;;;;5.00;1.30;;;6.90;99.90;;;;;;4942116;29;20231;-58
2023/01/14 02:27:38;;;;;;;4.70;1.30;;;6.90;99.90;;;;;;4937277;29;20232;-57
2023/01/14 02:30:36;;;;;;;8.17;1.37;;;6.90;99.90;;;;;;4954374;29;20231;-58
2023/01/14 02:33:16;;;;;;;5.87;1.53;;;6.90;99.90;;;;;;4943306;29;20572;-58
2023/01/14 02:35:51;;;;;;;7.77;1.37;;;6.90;99.90;;;;;;4953802;29;20235;-57
2023/01/14 02:38:29;;;;;;;5.07;1.20;;;6.90;99.90;;;;;;4955697;28;20656;-58
2023/01/14 02:41:08;;;;;;;4.83;1.20;;;6.90;99.90;;;;;;4954424;29;20351;-58
2023/01/14 02:46:34;;;;;;;4.53;1.20;;;6.90;99.90;;;;;;4953595;28;20227;-58
2023/01/14 02:49:12;;;;;;;4.33;1.40;;;6.90;99.90;;;;;;4954276;29;20243;-58
2023/01/14 02:51:44;;;;;;;6.27;1.30;;;6.90;99.90;;;;;;4954033;29;20695;-58
2023/01/14 02:54:12;;;;;;;5.70;0.97;;;6.90;99.90;;;;;;4954041;29;20305;-58
2023/01/14 02:56:41;;;;;;;7.27;1.23;;;6.80;99.90;;;;;;4953569;28;20227;-58
2023/01/14 02:59:46;;;;;;;3.53;1.00;;;6.80;99.90;;;;;;4950631;28;20235;-58
2023/01/14 03:02:47;;;;;;;4.50;1.23;;;6.80;99.90;;;;;;4886824;29;20644;-58
2023/01/14 03:05:40;;;;;;;5.87;1.40;;;6.70;99.90;;;;;;4944039;29;20586;-57
2023/01/14 03:08:18;;;;;;;5.77;1.87;;;6.70;99.90;;;;;;4955204;28;20222;-58
2023/01/14 03:10:53;;;;;;;6.13;1.13;;;6.70;99.90;;;;;;4953800;29;20238;-58
2023/01/14 03:13:25;;;;;;;3.57;1.27;;;6.70;99.90;;;;;;4953906;29;20575;-58
2023/01/14 03:15:58;;;;;;;5.27;1.10;;;6.70;99.90;;;;;;4955127;29;20701;-59
2023/01/14 03:18:32;;;;;;;6.83;1.40;;;6.70;99.90;;;;;;4954901;28;20219;-58
2023/01/14 03:21:07;;;;;;;5.03;1.33;;;6.70;99.90;;;;;;4953835;29;20235;-58
2023/01/14 03:23:39;;;;;;;3.87;1.17;;;6.70;99.90;;;;;;4953303;29;20235;-59
2023/01/14 03:26:12;;;;;;;5.10;1.20;;;6.60;99.90;;;;;;4953699;29;20230;-58
2023/01/14 03:28:47;;;;;;;3.80;1.27;;;6.70;99.90;;;;;;4953429;29;20239;-59
2023/01/14 03:31:21;;;;;;;3.60;1.00;;;6.70;99.90;;;;;;4946176;29;20630;-58
2023/01/14 03:33:54;;;;;;;3.57;1.00;;;6.70;99.90;;;;;;4950315;29;20760;-58
2023/01/14 03:36:26;;;;;;;5.43;1.20;;;6.70;99.90;;;;;;4953757;29;20215;-58
2023/01/14 03:38:59;;;;;;;3.80;1.07;;;6.70;99.90;;;;;;4954774;28;20219;-58
2023/01/14 03:44:19;;;;;;;2.77;1.10;;;6.70;99.90;;;;;;4954655;29;20234;-59
2023/01/14 03:46:48;;;;;;;3.47;1.10;;;6.70;99.90;;;;;;4954737;29;20231;-58
2023/01/14 03:49:16;;;;;;;5.83;1.13;;;6.70;99.90;;;;;;4954592;28;20587;-58
2023/01/14 03:51:50;;;;;;;3.70;0.90;;;6.70;99.90;;;;;;4954694;29;20239;-58
2023/01/14 03:54:22;;;;;;;4.83;1.27;;;6.70;99.90;;;;;;4954639;29;20235;-58
2023/01/14 03:57:04;;;;;;;4.13;1.07;;;6.70;99.90;;;;;;4954281;28;20227;-58
2023/01/14 03:59:42;;;;;;;10.50;1.33;;;6.70;99.90;;;;;;4949556;28;20238;-58
2023/01/14 04:02:11;;;;;;;5.10;1.00;;;6.70;99.90;;;;;;4937464;28;20259;-58
2023/01/14 04:04:41;;;;;;;4.57;1.00;;;6.70;99.90;;;;;;4954415;28;20243;-58
2023/01/14 04:07:11;;;;;;;9.00;1.20;;;6.80;99.90;;;;;;4947279;28;20583;-58
2023/01/14 04:09:39;;;;;;;5.73;1.40;;;6.70;99.90;;;;;;4958518;28;20247;-58
2023/01/14 04:12:08;;;;;;;4.77;1.20;;;6.80;99.90;;;;;;4958780;28;20238;-58
2023/01/14 04:17:21;;;;;;;7.30;1.50;;;6.80;99.90;;;;;;4958366;29;20660;-58
2023/01/14 04:19:49;;;;;;;3.87;1.20;;;6.80;99.90;;;;;;4958223;28;20219;-58
2023/01/14 04:22:19;;;;;;;6.93;1.43;;;6.80;99.90;;;;;;4958479;28;20286;-57
2023/01/14 04:24:47;;;;;;;5.83;1.40;;;6.80;99.90;;;;;;4957674;28;20230;-58
2023/01/14 04:27:15;;;;;;;3.90;1.33;;;6.80;99.90;;;;;;4958060;29;20227;-57
2023/01/14 04:29:43;;;;;;;7.63;1.37;;;6.80;99.90;;;;;;4957742;29;20238;-58
2023/01/14 04:32:11;;;;;;;5.63;2.00;;;6.80;99.90;;;;;;4939985;29;20443;-58
2023/01/14 04:34:39;;;;;;;4.10;1.00;;;6.80;99.90;;;;;;4957781;28;20810;-58
2023/01/14 04:37:08;;;;;;;5.33;1.83;;;6.70;99.90;;;;;;4957822;28;20607;-58
2023/01/14 04:39:37;;;;;;;8.50;2.00;;;6.80;99.90;;;;;;4957426;28;20556;-58
2023/01/14 04:44:51;;;;;;;10.77;2.10;;;6.80;99.90;;;;;;4957870;29;20253;-58
2023/01/14 04:47:19;;;;;;;8.93;2.57;;;6.80;99.90;;;;;;4957107;29;20235;-58
2023/01/14 04:49:47;;;;;;;6.70;2.07;;;6.80;99.90;;;;;;4957192;28;20714;-58
2023/01/14 04:52:15;;;;;;;10.93;3.53;;;6.80;99.90;;;;;;4957227;29;20227;-58
2023/01/14 04:54:44;;;;;;;13.43;2.80;;;6.90;99.90;;;;;;4956868;29;20934;-58
2023/01/14 04:57:13;;;;;;;12.13;2.20;;;6.80;99.90;;;;;;4955445;29;20235;-58
2023/01/14 04:59:41;;;;;;;10.63;2.33;;;6.80;99.90;;;;;;4957536;28;20253;-58
2023/01/14 05:02:09;;;;;;;11.57;2.00;;;6.80;99.90;;;;;;4957084;28;20247;-58
2023/01/14 05:04:37;;;;;;;11.73;2.80;;;6.80;99.90;;;;;;4957553;28;20227;-58
2023/01/14 05:07:05;;;;;;;17.60;2.97;;;6.90;99.90;;;;;;4957463;29;20231;-59
2023/01/14 05:09:33;;;;;;;8.23;2.50;;;6.80;99.90;;;;;;4955940;29;20228;-57
2023/01/14 05:12:03;;;;;;;12.90;2.43;;;6.80;99.90;;;;;;4957900;28;20305;-58
2023/01/14 05:14:31;;;;;;;10.43;2.60;;;6.80;99.90;;;;;;4957112;29;20231;-58
2023/01/14 05:16:59;;;;;;;12.87;3.13;;;6.80;99.90;;;;;;4957439;28;20235;-58
2023/01/14 05:19:27;;;;;;;13.60;3.00;;;6.90;99.90;;;;;;4956776;28;20234;-57
2023/01/14 05:21:55;;;;;;;11.10;2.93;;;6.90;99.90;;;;;;4957178;29;20228;-59
2023/01/14 05:24:23;;;;;;;10.23;2.50;;;6.90;99.90;;;;;;4957078;29;20227;-58
2023/01/14 05:26:51;;;;;;;14.70;3.50;;;6.90;99.90;;;;;;4957360;29;20963;-59
2023/01/14 05:29:20;;;;;;;13.07;3.20;;;6.90;99.90;;;;;;4956899;29;20242;-58
2023/01/14 05:31:48;;;;;;;13.00;3.50;;;6.90;99.90;;;;;;4956261;28;20523;-59
2023/01/14 05:34:18;;;;;;;12.67;2.93;;;6.90;99.90;;;;;;4950283;29;20580;-58
2023/01/14 05:36:46;;;;;;;12.83;2.97;;;6.90;99.90;;;;;;4956704;28;20235;-59
2023/01/14 05:39:14;;;;;;;15.73;2.93;;;6.90;99.90;;;;;;4957136;29;20706;-56
2023/01/14 05:45:37;;;;;;;15.40;3.27;;;6.90;99.90;;;;;;4957141;29;20224;-58
2023/01/14 05:47:17;;;;;;;15.47;3.60;;;6.90;99.90;;;;;;4956863;29;20561;-58
2023/01/14 05:49:45;;;;;;;13.40;3.00;;;6.90;99.90;;;;;;4956303;28;20231;-59
2023/01/14 05:52:14;;;;;;;10.87;2.80;;;6.90;99.90;;;;;;4956236;28;20240;-58
2023/01/14 05:54:42;;;;;;;20.67;4.03;;;7.00;99.90;;;;;;4956664;28;20239;-59
2023/01/14 05:57:14;;;;;;;14.57;3.30;;;6.90;99.90;;;;;;4956540;29;20595;-58
2023/01/14 05:59:43;;;;;;;13.33;3.00;;;7.00;99.90;;;;;;4956447;28;20232;-58
2023/01/14 06:07:42;;;;;;;14.60;3.17;;;6.90;99.90;;;;;;4956508;29;20322;-58
2023/01/14 06:10:11;;;;;;;12.70;3.07;;;7.00;99.90;;;;;;4956188;28;20231;-58
2023/01/14 06:12:57;;;;;;;15.80;3.33;;;6.90;99.90;;;;;;4956433;28;20583;-58
2023/01/14 06:15:33;;;;;;;11.30;3.13;;;7.00;99.90;;;;;;4956054;28;20231;-56
2023/01/14 06:18:09;;;;;;;12.83;3.73;;;7.00;99.90;;;;;;4955976;29;20314;-59
2023/01/14 06:20:37;;;;;;;18.13;3.83;;;6.90;99.90;;;;;;4956108;29;20227;-59
2023/01/14 06:23:07;;;;;;;14.17;3.40;;;6.90;99.90;;;;;;4955693;28;20243;-58
2023/01/14 06:25:36;;;;;;;18.23;3.70;;;6.90;99.90;;;;;;4956074;29;20738;-58
2023/01/14 06:28:04;;;;;;;16.97;3.40;;;7.00;99.90;;;;;;4955798;28;20227;-59
2023/01/14 06:30:33;;;;;;;10.70;3.00;;;7.00;99.90;;;;;;4954544;28;20235;-58
2023/01/14 06:33:01;;;;;;;14.03;3.27;;;7.00;99.90;;;;;;4956161;28;20246;-58
2023/01/14 06:35:29;;;;;;;11.80;2.73;;;6.90;99.90;;;;;;4955668;28;20231;-59
2023/01/14 06:37:57;;;;;;;10.13;3.00;;;6.90;99.90;;;;;;4955866;28;20234;-59
2023/01/14 06:40:25;;;;;;;13.53;3.10;;;6.90;99.90;;;;;;4955099;29;20238;-57
2023/01/14 06:42:54;;;;;;;12.60;2.80;;;6.80;99.90;;;;;;4955728;29;20300;-58
2023/01/14 06:45:23;;;;;;;11.10;2.50;;;6.80;99.90;;;;;;4955862;28;20247;-59
2023/01/14 06:47:54;;;;;;;12.90;3.10;;;6.80;99.90;;;;;;4955453;29;20686;-58
2023/01/14 06:50:23;;;;;;;13.20;2.73;;;6.80;99.90;;;;;;4955787;28;20649;-58
2023/01/14 06:52:52;;;;;;;12.47;3.03;;;6.70;99.90;;;;;;4955402;28;20234;-58
2023/01/14 06:55:21;;;;;;;16.70;3.40;;;6.70;99.90;;;;;;4955999;28;20238;-58
2023/01/14 06:57:49;;;;;;;14.03;3.00;;;6.70;99.90;;;;;;4954873;28;20600;-58
2023/01/14 07:00:18;;;;;;;14.23;2.87;;;6.70;99.90;;;;;;4954627;28;20227;-58
2023/01/14 07:02:46;;;;;;;10.63;3.03;;;6.60;99.90;;;;;;4955140;28;20259;-59
2023/01/14 07:05:16;;;;;;;12.20;3.00;;;6.60;99.90;;;;;;4955372;28;20231;-59
2023/01/14 07:07:47;;;;;;;16.53;3.70;;;6.50;99.90;;;;;;4948135;28;20755;-58
2023/01/14 07:10:17;;;;;;;11.67;3.00;;;6.50;99.90;;;;;;4950516;29;20283;-57
2023/01/14 07:12:46;;;;;;;14.20;3.93;;;6.50;99.90;;;;;;4949789;29;20234;-53
2023/01/14 07:15:16;;;;;;;13.27;3.63;;;6.50;99.90;;;;;;4950205;29;20273;-58
2023/01/14 07:17:46;;;;;;;13.63;3.80;;;6.40;99.90;;;;;;4950148;28;20234;-56
2023/01/14 07:20:16;;;;;;;16.00;4.47;;;6.40;99.90;;;;;;4950017;29;20238;-58
2023/01/14 07:22:44;;;;;;;16.50;4.33;;;6.40;99.90;;;;;;4950585;28;20228;-59
2023/01/14 07:25:12;;;;;;;15.13;5.00;;;6.40;99.90;;;;;;4950320;29;20255;-58
2023/01/14 07:27:40;;;;;;;15.53;4.40;;;6.40;99.90;;;;;;4950438;29;20229;-58
2023/01/14 07:30:10;;;;;;;15.40;4.47;;;6.40;99.90;;;;;;4949985;29;20249;-58
2023/01/14 07:32:38;;;;;;;16.37;4.13;;;6.40;99.90;;;;;;4949640;28;20487;-58
2023/01/14 07:35:06;;;;;;;14.37;4.60;;;6.30;99.90;;;;;;4950382;29;20235;-58
2023/01/14 07:37:36;;;;;;;13.00;3.93;;;6.30;99.90;;;;;;4950606;28;20699;-58
2023/01/14 07:40:05;;;;;;;18.10;5.37;;;6.30;99.90;;;;;;4949567;29;20234;-58
2023/01/14 07:42:34;;;;;;;14.53;4.77;;;6.30;99.90;;;;;;4949555;29;20628;-57
2023/01/14 07:45:02;;;;;;;15.73;5.03;;;6.30;99.90;;;;;;4950559;29;20695;-57
2023/01/14 07:47:30;;;;;;;21.63;5.47;;;6.30;99.90;;;;;;4950018;29;20231;-59
2023/01/14 07:49:58;;;;;;;19.77;5.63;;;6.30;99.90;;;;;;4950413;29;20238;-58
2023/01/14 07:52:26;;;;;;;16.63;6.00;;;6.20;99.90;;;;;;4950513;29;20231;-57
2023/01/14 07:54:55;;;;;;;18.80;5.80;;;6.20;99.90;;;;;;4950096;29;20235;-58
2023/01/14 07:57:23;;;;;;;14.57;5.33;;;6.20;99.90;;;;;;4950145;29;20231;-57
2023/01/14 07:59:51;;;;;;;17.30;6.33;;;6.20;99.90;;;;;;4950220;28;20234;-58
2023/01/14 08:02:19;;;;;;;23.87;6.93;;;6.30;99.90;;;;;;4950051;28;20243;-58
2023/01/14 08:04:47;;;;;;;23.37;6.60;;;6.30;99.90;;;;;;4950056;29;20683;-59
2023/01/14 08:07:15;;;;;;;19.00;6.37;;;6.20;99.90;;;;;;4950218;29;20231;-54
2023/01/14 08:09:43;;;;;;;29.93;8.03;;;6.30;99.90;;;;;;4949369;29;20255;-58
2023/01/14 08:12:13;;;;;;;15.97;5.83;;;6.30;99.90;;;;;;4950056;29;20509;-58
2023/01/14 08:14:41;;;;;;;19.57;5.70;;;6.30;99.90;;;;;;4950021;29;20303;-59
2023/01/14 08:17:09;;;;;;;19.63;5.67;;;6.30;99.90;;;;;;4950194;28;20258;-58
2023/01/14 08:19:37;;;;;;;16.70;5.13;;;6.30;99.90;;;;;;4949267;29;20239;-59
2023/01/14 08:22:05;;;;;;;15.83;4.83;;;6.30;99.90;;;;;;4950011;29;20230;-58
2023/01/14 08:24:33;;;;;;;18.17;5.00;;;6.30;99.90;;;;;;4949272;29;20227;-58
2023/01/14 08:27:01;;;;;;;18.93;5.53;;;6.30;99.90;;;;;;4950385;29;20594;-57
2023/01/14 08:29:31;;;;;;;21.03;5.97;;;6.30;99.90;;;;;;4949601;29;20227;-56
2023/01/14 08:31:59;;;;;;;19.27;5.00;;;6.30;99.90;;;;;;4949216;28;20733;-58
2023/01/14 08:34:28;;;;;;;16.83;5.10;;;6.30;99.90;;;;;;4947009;29;20231;-58
2023/01/14 08:36:56;;;;;;;18.77;5.13;;;6.30;99.90;;;;;;4949471;29;20223;-59
2023/01/14 08:39:24;;;;;;;22.27;6.60;;;6.30;99.90;;;;;;4949963;29;20234;-58
2023/01/14 08:41:52;;;;;;;23.43;7.17;;;6.30;99.90;;;;;;4950177;28;20680;-56
2023/01/14 08:44:20;;;;;;;19.60;6.17;;;6.30;99.90;;;;;;4949599;29;20261;-59
2023/01/14 08:46:50;;;;;;;18.57;5.67;;;6.30;99.90;;;;;;4949802;28;20227;-57
2023/01/14 08:49:19;;;;;;;21.17;6.40;;;6.30;99.90;;;;;;4949783;28;20552;-55
2023/01/14 08:51:47;;;;;;;23.93;5.90;;;6.30;99.90;;;;;;4948057;28;20490;-57
2023/01/14 08:54:15;;;;;;;17.80;7.23;;;6.40;99.90;;;;;;4951746;28;20226;-58
2023/01/14 08:56:43;;;;;;;19.47;6.50;;;6.40;99.90;;;;;;4953664;29;20560;-58
2023/01/14 08:59:11;;;;;;;21.57;7.97;;;6.40;99.90;;;;;;4956052;29;20467;-58
2023/01/14 09:01:40;;;;;;;23.83;7.30;;;6.40;99.90;;;;;;4956182;28;20273;-58
2023/01/14 09:04:24;;;;;;;22.83;6.57;;;6.40;99.90;;;;;;4956372;28;20237;-58
2023/01/14 09:17:58;;;;;;;20.40;6.37;;;6.40;99.90;;;;;;4957576;29;20706;-58
2023/01/14 09:20:31;;;;;;;20.57;6.60;;;6.40;99.90;;;;;;4956698;28;20467;-58
2023/01/14 09:23:00;;;;;;;22.27;7.23;;;6.50;99.90;;;;;;4953542;28;20486;-58
2023/01/14 09:25:28;;;;;;;22.80;7.73;;;6.50;99.90;;;;;;4938005;29;20224;-59
2023/01/14 09:27:56;;;;;;;19.67;7.07;;;6.50;99.90;;;;;;4946494;29;20234;-58
2023/01/14 09:30:26;;;;;;;20.23;7.07;;;6.50;99.90;;;;;;4955950;28;20245;-58
2023/01/14 09:32:54;;;;;;;19.83;6.33;;;6.50;99.90;;;;;;4956836;28;20290;-58
2023/01/14 09:35:22;;;;;;;23.63;6.63;;;6.50;99.90;;;;;;4955917;29;20242;-58
2023/01/14 09:37:52;;;;;;;24.57;6.73;;;6.50;99.90;;;;;;4956566;28;20224;-58
2023/01/14 09:40:20;;;;;;;29.47;7.03;;;6.50;99.90;;;;;;4956601;29;20583;-58
2023/01/14 09:42:50;;;;;;;24.77;7.03;;;6.60;99.90;;;;;;4955736;28;20557;-59
2023/01/14 09:45:25;;;;;;;23.20;7.07;;;6.60;99.90;;;;;;4955647;28;20703;-59
2023/01/14 09:47:55;;;;;;;20.43;6.60;;;6.60;99.90;;;;;;4956168;28;20297;-59
2023/01/14 09:50:34;;;;;;;23.90;7.80;;;6.60;99.90;;;;;;4956550;28;20587;-59
2023/01/14 09:53:22;;;;;;;18.57;6.53;;;6.60;99.90;;;;;;4956791;29;20246;-59
2023/01/14 09:55:56;;;;;;;24.00;6.93;;;6.60;99.90;;;;;;4956508;29;20291;-59
2023/01/14 09:58:29;;;;;;;24.07;7.03;;;6.60;99.90;;;;;;4953847;28;20553;-57
2023/01/14 10:01:07;;;;;;;25.73;7.13;;;6.60;99.90;;;;;;4954326;28;20230;-58
2023/01/14 10:03:42;;;;;;;18.60;7.23;;;6.60;99.90;;;;;;4956200;29;20314;-59
2023/01/14 10:06:14;;;;;;;24.77;7.37;;;6.60;99.90;;;;;;4947639;29;20235;-58
2023/01/14 10:08:47;;;;;;;23.37;7.70;;;6.70;99.90;;;;;;4956497;29;20572;-59
2023/01/14 10:11:16;;;;;;;20.67;8.53;;;6.70;99.90;;;;;;4956280;29;20687;-57
2023/01/14 10:13:49;;;;;;;22.67;7.20;;;6.70;99.90;;;;;;4956300;29;20243;-59
2023/01/14 10:16:22;;;;;;;23.23;7.80;;;6.70;99.90;;;;;;4956192;29;20230;-58
2023/01/14 10:18:54;;;;;;;31.30;8.00;;;6.70;99.90;;;;;;4956211;29;20586;-59
2023/01/14 10:21:30;;;;;;;22.50;6.97;;;6.70;99.90;;;;;;4956364;29;20235;-58
2023/01/14 10:23:59;;;;;;;17.97;6.67;;;6.70;99.90;;;;;;4956344;29;20218;-59
2023/01/14 10:26:32;;;;;;;24.50;6.77;;;6.70;99.90;;;;;;4955847;29;20270;-59
2023/01/14 10:29:03;;;;;;;25.60;5.97;;;6.70;99.90;;;;;;4955791;29;20228;-58
2023/01/14 10:31:34;;;;;;;22.20;6.53;;;6.70;99.90;;;;;;4955075;28;20247;-59
2023/01/14 10:34:10;;;;;;;19.43;6.00;;;6.70;99.90;;;;;;4955615;29;20246;-59
2023/01/14 10:36:38;;;;;;;17.37;6.30;;;6.70;99.90;;;;;;4955885;29;20227;-59
2023/01/14 10:39:12;;;;;;;20.40;6.00;;;6.70;99.90;;;;;;4955345;28;20230;-58
2023/01/14 10:41:49;;;;;;;19.90;5.63;;;6.80;99.90;;;;;;4955872;29;20235;-59
2023/01/14 10:44:22;;;;;;;24.30;6.97;;;6.80;99.90;;;;;;4955998;29;20250;-59
2023/01/14 10:46:54;;;;;;;23.60;5.50;;;6.80;99.90;;;;;;4954720;29;20756;-59
2023/01/14 10:49:25;;;;;;;22.87;5.90;;;6.80;99.90;;;;;;4955504;29;20231;-59
2023/01/14 10:51:53;;;;;;;23.23;5.20;;;6.80;99.90;;;;;;4955614;28;20254;-59
2023/01/14 10:54:24;;;;;;;27.20;6.20;;;6.80;99.90;;;;;;4955458;28;20242;-59
2023/01/14 10:56:54;;;;;;;18.30;4.97;;;6.90;99.90;;;;;;4953472;29;20225;-59
2023/01/14 10:59:32;;;;;;;20.37;5.33;;;6.90;99.90;;;;;;4954244;28;20586;-59
2023/01/14 11:02:00;;;;;;;21.57;4.63;;;6.80;99.90;;;;;;4952658;28;20241;-58
2023/01/14 11:04:48;;;;;;;23.40;4.60;;;6.80;99.90;;;;;;4954994;28;20227;-59
2023/01/14 11:07:25;;;;;;;20.63;4.30;;;6.80;99.90;;;;;;4955561;28;20241;-57
2023/01/14 11:09:56;;;;;;;23.50;5.10;;;6.80;99.90;;;;;;4955261;28;20586;-58
2023/01/14 11:12:29;;;;;;;22.50;5.63;;;6.80;99.90;;;;;;4946475;29;20265;-58
2023/01/14 11:14:57;;;;;;;17.87;4.73;;;6.80;99.90;;;;;;4954882;28;20231;-57
2023/01/14 11:17:27;;;;;;;19.40;4.77;;;6.70;99.90;;;;;;4954094;28;20238;-58
2023/01/14 11:20:19;;;;;;;14.77;4.17;;;6.80;99.90;;;;;;4954483;29;20238;-59
2023/01/14 11:22:56;;;;;;;19.73;4.33;;;6.80;99.90;;;;;;4941910;28;20240;-58
2023/01/14 11:25:26;;;;;;;15.73;4.07;;;6.70;99.90;;;;;;4936055;29;20739;-59
2023/01/14 11:27:55;;;;;;;20.83;5.07;;;6.70;99.90;;;;;;4942622;29;20242;-59
2023/01/14 11:30:25;;;;;;;15.73;3.90;;;6.70;99.90;;;;;;4954606;28;20699;-58
2023/01/14 11:32:55;;;;;;;28.30;4.57;;;6.70;99.90;;;;;;4955018;29;20640;-59
2023/01/14 11:35:27;;;;;;;20.00;5.83;;;6.70;99.90;;;;;;4955001;28;20239;-58
2023/01/14 11:37:56;;;;;;;18.20;5.43;;;6.70;99.90;;;;;;4954877;28;20231;-58
2023/01/14 11:41:28;;;;;;;16.57;4.77;;;6.70;99.90;;;;;;4954851;28;20227;-59
2023/01/14 11:43:25;;;;;;;14.20;4.07;;;6.70;99.90;;;;;;4954715;28;20230;-59
2023/01/14 11:46:05;;;;;;;16.47;4.80;;;6.60;99.90;;;;;;4955069;28;20310;-59
2023/01/14 11:48:34;;;;;;;23.53;6.53;;;6.60;99.90;;;;;;4954430;28;20245;-58
2023/01/14 11:51:03;;;;;;;14.67;5.53;;;6.60;99.90;;;;;;4954669;29;20235;-59
2023/01/14 11:53:44;;;;;;;16.30;4.20;;;6.60;99.90;;;;;;4954421;29;20700;-59
2023/01/14 11:56:17;;;;;;;15.40;4.40;;;6.60;99.90;;;;;;4954459;29;20699;-53
2023/01/14 11:58:45;;;;;;;18.60;4.27;;;6.60;99.90;;;;;;4950197;29;20462;-60
2023/01/14 12:01:22;;;;;;;16.43;3.67;;;6.60;99.90;;;;;;4954151;28;20255;-59
2023/01/14 12:04:02;;;;;;;14.13;3.90;;;6.60;99.90;;;;;;4954388;28;20218;-59
2023/01/14 12:06:34;;;;;;;17.23;3.73;;;6.50;99.90;;;;;;4954301;28;20269;-59
2023/01/14 12:09:06;;;;;;;14.30;3.50;;;6.60;99.90;;;;;;4954588;28;20233;-59
2023/01/14 12:11:51;;;;;;;16.17;3.40;;;6.50;99.90;;;;;;4954291;28;20234;-59
2023/01/14 12:17:20;;;;;;;17.67;4.27;;;6.60;99.90;;;;;;4954001;29;20226;-59
2023/01/14 12:19:52;;;;;;;12.13;3.07;;;6.60;99.90;;;;;;4954368;29;20234;-59
2023/01/14 12:22:25;;;;;;;11.40;2.80;;;6.60;99.90;;;;;;4954355;28;20227;-59
2023/01/14 12:25:02;;;;;;;18.23;3.67;;;6.50;99.90;;;;;;4954426;29;20471;-60
2023/01/14 12:27:44;;;;;;;12.67;2.67;;;6.50;99.90;;;;;;4954361;28;20247;-59
2023/01/14 12:30:30;;;;;;;14.03;3.13;;;6.50;99.90;;;;;;4953223;28;20249;-58
2023/01/14 12:33:03;;;;;;;17.30;3.80;;;6.50;99.90;;;;;;4956073;29;20234;-59
2023/01/14 12:35:37;;;;;;;17.13;3.80;;;6.50;99.90;;;;;;4957130;28;20281;-59
2023/01/14 12:46:33;;;;;;;10.53;2.93;;;6.50;99.90;;;;;;4957702;29;20458;-58
2023/01/14 12:49:01;;;;;;;12.03;2.90;;;6.50;99.90;;;;;;4958125;29;20818;-59
2023/01/14 12:51:32;;;;;;;10.53;3.03;;;6.50;99.90;;;;;;4957093;28;20583;-59
2023/01/14 12:54:02;;;;;;;9.77;2.93;;;6.60;99.90;;;;;;4950975;28;20762;-55
2023/01/14 12:56:34;;;;;;;10.67;2.40;;;6.50;99.90;;;;;;4951013;28;20294;-53
2023/01/14 12:59:06;;;;;;;12.43;3.17;;;6.50;99.90;;;;;;4952691;28;20231;-58
2023/01/14 13:01:41;;;;;;;13.03;2.50;;;6.50;99.90;;;;;;4951169;28;20610;-56
2023/01/14 13:04:19;;;;;;;11.60;2.43;;;6.50;99.90;;;;;;4952534;29;20462;-58
2023/01/14 13:06:52;;;;;;;9.70;2.40;;;6.50;99.90;;;;;;4952666;28;20238;-55
2023/01/14 13:09:25;;;;;;;9.10;2.40;;;6.50;99.90;;;;;;4952585;29;20610;-59
2023/01/14 13:12:01;;;;;;;8.47;2.73;;;6.60;99.90;;;;;;4953150;28;20243;-59
2023/01/14 13:14:38;;;;;;;9.63;2.17;;;6.60;99.90;;;;;;4953065;29;20231;-59
2023/01/14 13:17:19;;;;;;;8.97;2.33;;;6.60;99.90;;;;;;4953197;28;20691;-58
2023/01/14 13:19:52;;;;;;;10.07;2.93;;;6.60;99.90;;;;;;4952621;29;20230;-56
2023/01/14 13:22:48;;;;;;;9.63;2.30;;;6.60;99.90;;;;;;4951777;28;20235;-57
2023/01/14 13:25:35;;;;;;;8.53;2.20;;;6.60;99.90;;;;;;4952304;29;20715;-59
2023/01/14 13:28:31;;;;;;;10.67;3.47;;;6.60;99.90;;;;;;4952178;28;20993;-58
2023/01/14 13:31:34;;;;;;;13.07;3.23;;;6.70;99.90;;;;;;4952043;28;20245;-59
2023/01/14 13:34:45;;;;;;;10.27;2.90;;;6.60;99.90;;;;;;4911471;29;20271;-58
2023/01/14 13:37:24;;;;;;;7.20;2.00;;;6.70;99.90;;;;;;4951116;29;20257;-59
2023/01/14 13:39:56;;;;;;;7.07;2.53;;;6.70;99.90;;;;;;4952003;28;20807;-58
2023/01/14 13:42:38;;;;;;;10.03;2.10;;;6.70;99.90;;;;;;4952108;29;20318;-57
2023/01/14 13:45:20;;;;;;;5.07;2.10;;;6.70;99.90;;;;;;4952744;29;20779;-59
2023/01/14 13:47:52;;;;;;;9.73;2.20;;;6.70;99.90;;;;;;4952545;28;20219;-57
2023/01/14 13:50:24;;;;;;;8.00;2.07;;;6.70;99.90;;;;;;4951547;29;20227;-56
2023/01/14 13:52:56;;;;;;;9.40;2.30;;;6.70;99.90;;;;;;4951719;28;20243;-59
2023/01/14 13:55:28;;;;;;;8.67;2.10;;;6.70;99.90;;;;;;4951166;29;20235;-58
2023/01/14 13:58:00;;;;;;;8.73;2.40;;;6.80;99.90;;;;;;4951940;29;20235;-59